createdAt,value
2019-05-28T00:00:57.942Z,79.70
2019-05-28T00:03:27.341Z,80.00
2019-05-28T00:05:56.645Z,80.10
2019-05-28T00:08:26.043Z,81.30
2019-05-28T00:10:55.425Z,80.00
2019-05-28T00:13:24.937Z,81.70
2019-05-28T00:15:54.197Z,80.60
2019-05-28T00:18:23.469Z,80.00
2019-05-28T00:20:52.906Z,80.30
2019-05-28T00:23:22.317Z,80.40
2019-05-28T00:25:51.601Z,79.90
2019-05-28T00:28:20.920Z,80.60
2019-05-28T00:30:50.365Z,80.20
2019-05-28T00:33:19.899Z,80.70
2019-05-28T00:35:49.473Z,81.00
2019-05-28T00:38:18.862Z,80.70
2019-05-28T00:40:48.258Z,81.60
2019-05-28T00:43:17.810Z,82.60
2019-05-28T00:45:47.396Z,82.90
2019-05-28T00:48:16.759Z,81.40
2019-05-28T00:50:46.030Z,82.30
2019-05-28T00:53:15.540Z,81.90
2019-05-28T00:55:45.950Z,83.20
2019-05-28T00:58:15.954Z,83.20
2019-05-28T01:00:47.838Z,82.90
2019-05-28T01:03:17.370Z,85.60
2019-05-28T01:05:46.722Z,84.40
2019-05-28T01:08:16.180Z,84.00
2019-05-28T01:10:45.926Z,84.30
2019-05-28T01:13:15.511Z,83.80
2019-05-28T01:15:45.285Z,83.90
2019-05-28T01:18:14.589Z,84.90
2019-05-28T01:20:44.126Z,84.00
2019-05-28T01:23:13.584Z,82.70
2019-05-28T01:25:42.926Z,83.40
2019-05-28T01:28:12.303Z,83.90
2019-05-28T01:30:54.798Z,84.40
2019-05-28T01:33:12.610Z,82.60
2019-05-28T01:35:41.900Z,82.00
2019-05-28T01:38:11.485Z,81.90
2019-05-28T01:40:40.926Z,82.70
2019-05-28T01:43:10.288Z,81.90
2019-05-28T01:45:39.617Z,81.50
2019-05-28T01:48:09.012Z,81.20
2019-05-28T01:50:38.378Z,82.00
2019-05-28T01:53:07.949Z,81.90
2019-05-28T01:55:37.325Z,82.40
2019-05-28T01:58:06.830Z,82.50
2019-05-28T02:00:36.139Z,81.80
2019-05-28T02:03:05.428Z,81.20
2019-05-28T02:05:34.563Z,81.80
2019-05-28T02:08:03.881Z,83.20
2019-05-28T02:10:33.015Z,81.90
2019-05-28T02:13:02.167Z,82.90
2019-05-28T02:15:31.296Z,82.90
2019-05-28T02:18:00.351Z,84.60
2019-05-28T02:20:29.534Z,83.00
2019-05-28T02:22:58.840Z,82.50
2019-05-28T02:25:28.645Z,82.60
2019-05-28T02:27:57.767Z,82.90
2019-05-28T02:30:26.823Z,82.70
2019-05-28T02:32:56.175Z,83.80
2019-05-28T02:35:25.449Z,85.10
2019-05-28T02:37:54.593Z,84.10
2019-05-28T02:40:23.995Z,83.10
2019-05-28T02:42:53.167Z,83.10
2019-05-28T02:45:22.927Z,84.10
2019-05-28T02:47:51.951Z,85.70
2019-05-28T02:50:41.091Z,84.40
2019-05-28T02:53:10.246Z,86.50
2019-05-28T02:55:41.166Z,83.90
2019-05-28T02:58:10.785Z,83.90
2019-05-28T03:00:40.387Z,84.80
2019-05-28T03:03:10.998Z,84.20
2019-05-28T03:05:43.290Z,85.00
2019-05-28T03:08:12.847Z,86.60
2019-05-28T03:13:13.079Z,85.50
2019-05-28T03:15:45.435Z,87.20
2019-05-28T03:18:16.525Z,84.70
2019-05-28T03:20:46.399Z,85.80
2019-05-28T03:23:16.483Z,86.60
2019-05-28T03:25:45.722Z,85.90
2019-05-28T03:28:14.954Z,85.80
2019-05-28T03:30:44.167Z,85.80
2019-05-28T03:33:13.615Z,88.50
2019-05-28T03:35:45.193Z,86.40
2019-05-28T03:38:15.494Z,87.20
2019-05-28T03:40:45.953Z,88.00
2019-05-28T03:43:34.227Z,86.70
2019-05-28T03:46:03.301Z,87.10
2019-05-28T03:48:32.419Z,86.20
2019-05-28T03:51:01.481Z,87.20
2019-05-28T03:53:30.666Z,88.30
2019-05-28T03:55:59.972Z,87.60
2019-05-28T03:58:28.999Z,87.00
2019-05-28T04:00:58.392Z,88.10
2019-05-28T04:03:46.595Z,88.30
2019-05-28T04:06:15.716Z,88.80
2019-05-28T04:08:44.986Z,87.10
2019-05-28T04:11:14.219Z,89.50
2019-05-28T04:13:43.339Z,87.30
2019-05-28T04:16:12.456Z,88.00
2019-05-28T04:18:41.615Z,87.20
2019-05-28T04:21:10.726Z,87.50
2019-05-28T04:23:41.747Z,88.90
2019-05-28T04:26:10.695Z,87.40
2019-05-28T04:28:40.002Z,88.80
2019-05-28T04:31:09.152Z,87.20
2019-05-28T04:33:38.277Z,88.70
2019-05-28T04:36:07.411Z,88.40
2019-05-28T04:38:36.408Z,89.10
2019-05-28T04:41:05.495Z,86.90
2019-05-28T04:43:34.559Z,87.40
2019-05-28T04:46:03.689Z,86.00
2019-05-28T04:48:32.721Z,85.40
2019-05-28T04:51:01.807Z,85.30
2019-05-28T04:53:30.915Z,85.20
2019-05-28T04:56:00.140Z,84.80
2019-05-28T04:58:29.298Z,84.80
2019-05-28T05:00:58.329Z,84.80
2019-05-28T05:03:27.445Z,85.70
2019-05-28T05:05:56.864Z,85.20
2019-05-28T05:08:26.261Z,85.20
2019-05-28T05:10:55.476Z,85.00
2019-05-28T05:13:24.792Z,85.10
2019-05-28T05:16:17.682Z,87.60
2019-05-28T05:19:12.369Z,86.00
2019-05-28T05:21:42.500Z,87.20
2019-05-28T05:24:14.747Z,86.50
2019-05-28T05:26:44.331Z,86.40
2019-05-28T05:29:13.637Z,86.70
2019-05-28T05:31:42.886Z,88.50
2019-05-28T05:34:12.050Z,87.20
2019-05-28T05:36:41.356Z,86.70
2019-05-28T05:39:29.715Z,87.00
2019-05-28T05:41:59.236Z,87.00
2019-05-28T05:44:28.479Z,88.10
2019-05-28T05:46:57.760Z,87.20
2019-05-28T05:49:27.051Z,89.10
2019-05-28T05:51:56.300Z,88.20
2019-05-28T05:54:25.311Z,89.10
2019-05-28T05:56:54.543Z,88.70
2019-05-28T05:59:23.682Z,89.20
2019-05-28T06:01:53.051Z,89.40
2019-05-28T06:04:22.272Z,89.60
2019-05-28T06:06:51.494Z,90.20
2019-05-28T06:09:20.862Z,90.40
2019-05-28T06:11:50.036Z,90.40
2019-05-28T06:14:19.245Z,90.50
2019-05-28T06:16:48.476Z,90.30
2019-05-28T06:19:17.575Z,90.60
2019-05-28T06:21:46.630Z,90.40
2019-05-28T06:24:15.795Z,90.00
2019-05-28T06:26:45.056Z,90.30
2019-05-28T06:29:14.222Z,90.80
2019-05-28T06:31:43.370Z,91.00
2019-05-28T06:34:12.740Z,90.20
2019-05-28T06:36:41.854Z,90.90
2019-05-28T06:39:11.263Z,90.60
2019-05-28T06:41:40.422Z,91.90
2019-05-28T06:44:09.513Z,91.10
2019-05-28T06:46:38.687Z,91.10
2019-05-28T06:49:27.037Z,91.10
2019-05-28T06:52:02.412Z,91.60
2019-05-28T06:54:31.647Z,91.60
2019-05-28T06:57:00.830Z,90.40
2019-05-28T06:59:30.047Z,90.80
2019-05-28T07:01:59.236Z,90.10
2019-05-28T07:04:32.886Z,90.90
2019-05-28T07:06:59.290Z,90.90
2019-05-28T07:09:28.471Z,90.70
2019-05-28T07:11:57.557Z,90.50
2019-05-28T07:14:26.651Z,90.80
2019-05-28T07:16:56.023Z,91.70
2019-05-28T07:19:25.379Z,92.70
2019-05-28T07:21:54.747Z,93.30
2019-05-28T07:24:24.059Z,93.90
2019-05-28T07:26:53.563Z,95.30
2019-05-28T07:29:22.707Z,96.00
2019-05-28T07:31:51.820Z,96.80
2019-05-28T07:34:30.161Z,97.50
2019-05-28T07:36:51.715Z,97.60
2019-05-28T07:39:40.217Z,96.90
2019-05-28T07:42:09.711Z,96.70
2019-05-28T07:44:38.826Z,98.30
2019-05-28T07:47:11.094Z,98.20
2019-05-28T07:49:38.988Z,98.30
2019-05-28T07:52:08.159Z,98.30
2019-05-28T07:54:39.350Z,98.60
2019-05-28T07:57:07.928Z,98.80
2019-05-28T07:59:36.936Z,98.20
2019-05-28T08:02:06.099Z,98.50
2019-05-28T08:04:46.700Z,98.90
2019-05-28T08:07:06.380Z,99.10
2019-05-28T08:09:35.796Z,99.00
2019-05-28T08:12:05.135Z,98.80
2019-05-28T08:14:34.238Z,99.30
2019-05-28T08:17:03.492Z,99.10
2019-05-28T08:19:32.562Z,99.00
2019-05-28T08:22:01.769Z,99.30
2019-05-28T08:24:30.961Z,99.00
2019-05-28T08:26:59.970Z,99.60
2019-05-28T08:29:29.203Z,99.40
2019-05-28T08:31:58.953Z,99.70
2019-05-28T08:34:28.137Z,99.50
2019-05-28T08:37:05.694Z,99.90
2019-05-28T08:39:28.096Z,99.60
2019-05-28T08:41:57.461Z,99.70
2019-05-28T08:44:26.876Z,99.90
2019-05-28T08:46:56.038Z,99.90
2019-05-28T08:49:25.298Z,99.50
2019-05-28T08:51:54.513Z,99.90
2019-05-28T08:54:23.651Z,99.40
2019-05-28T08:56:52.883Z,99.80
2019-05-28T08:59:22.258Z,99.50
2019-05-28T09:01:51.576Z,98.50
2019-05-28T09:04:20.884Z,99.30
2019-05-28T09:06:50.153Z,98.50
2019-05-28T09:09:19.232Z,98.10
2019-05-28T09:11:48.592Z,98.90
2019-05-28T09:14:17.728Z,98.70
2019-05-28T09:16:46.926Z,99.10
2019-05-28T09:19:16.014Z,99.90
2019-05-28T09:21:45.075Z,98.70
2019-05-28T09:24:14.202Z,98.20
2019-05-28T09:26:43.368Z,99.30
2019-05-28T09:29:12.790Z,98.80
2019-05-28T09:31:42.226Z,98.10
2019-05-28T09:34:11.471Z,98.70
2019-05-28T09:36:41.865Z,98.90
2019-05-28T09:39:11.152Z,99.30
2019-05-28T09:41:40.288Z,99.00
2019-05-28T09:44:09.384Z,99.50
2019-05-28T09:46:38.752Z,99.30
2019-05-28T09:49:07.990Z,98.90
2019-05-28T09:51:37.109Z,99.20
2019-05-28T09:54:06.369Z,99.70
2019-05-28T09:56:35.481Z,98.80
2019-05-28T09:59:04.957Z,99.30
2019-05-28T10:01:37.131Z,98.30
2019-05-28T10:04:05.891Z,98.30
2019-05-28T10:06:37.452Z,98.20
2019-05-28T10:09:07.337Z,98.80
2019-05-28T10:11:36.779Z,99.20
2019-05-28T10:14:06.017Z,98.40
2019-05-28T10:16:35.112Z,99.10
2019-05-28T10:19:04.532Z,98.80
2019-05-28T10:21:33.680Z,98.80
2019-05-28T10:24:02.888Z,99.10
2019-05-28T10:26:32.273Z,96.90
2019-05-28T10:29:01.475Z,97.70
2019-05-28T10:31:30.726Z,97.40
2019-05-28T10:34:00.031Z,97.70
2019-05-28T10:36:36.048Z,98.20
2019-05-28T10:39:00.063Z,98.80
2019-05-28T10:41:29.430Z,96.20
2019-05-28T10:43:58.607Z,98.40
2019-05-28T10:46:27.996Z,98.30
2019-05-28T10:48:57.186Z,98.60
2019-05-28T10:51:26.403Z,99.30
2019-05-28T10:53:55.738Z,98.10
2019-05-28T10:56:25.040Z,98.10
2019-05-28T10:59:13.255Z,98.40
2019-05-28T11:01:42.684Z,98.60
2019-05-28T11:04:11.877Z,98.20
2019-05-28T11:06:51.387Z,98.90
2019-05-28T11:09:12.479Z,98.40
2019-05-28T11:11:41.634Z,99.60
2019-05-28T11:14:10.881Z,98.10
2019-05-28T11:16:40.396Z,99.70
2019-05-28T11:19:09.555Z,98.80
2019-05-28T11:21:38.713Z,98.20
2019-05-28T11:24:08.219Z,97.50
2019-05-28T11:26:42.939Z,95.20
2019-05-28T11:29:12.037Z,95.00
2019-05-28T11:32:00.387Z,98.60
2019-05-28T11:34:29.661Z,97.80
2019-05-28T11:37:08.913Z,96.30
2019-05-28T11:39:49.065Z,95.30
2019-05-28T11:42:18.288Z,98.30
2019-05-28T11:44:47.603Z,94.40
2019-05-28T11:47:16.766Z,96.40
2019-05-28T11:49:46.340Z,95.00
2019-05-28T11:52:15.635Z,94.50
2019-05-28T11:54:45.591Z,93.80
2019-05-28T11:57:14.895Z,94.20
2019-05-28T11:59:44.092Z,95.20
2019-05-28T12:02:13.342Z,96.30
2019-05-28T12:04:42.398Z,95.00
2019-05-28T12:07:25.053Z,94.20
2019-05-28T12:09:42.477Z,95.20
2019-05-28T12:12:11.686Z,93.80
2019-05-28T12:14:41.110Z,93.80
2019-05-28T12:17:10.358Z,94.30
2019-05-28T12:19:39.437Z,94.30
2019-05-28T12:22:08.712Z,94.70
2019-05-28T12:24:38.074Z,94.20
2019-05-28T12:27:07.518Z,95.50
2019-05-28T12:29:51.051Z,93.00
2019-05-28T12:32:08.678Z,94.20
2019-05-28T12:34:38.351Z,92.70
2019-05-28T12:37:07.654Z,92.20
2019-05-28T12:39:36.979Z,92.40
2019-05-28T12:42:07.310Z,94.60
2019-05-28T12:44:42.349Z,91.90
2019-05-28T12:47:07.952Z,87.90
2019-05-28T12:49:37.141Z,92.30
2019-05-28T12:52:08.225Z,92.10
2019-05-28T12:54:37.579Z,91.90
2019-05-28T12:57:06.787Z,91.60
2019-05-28T12:59:36.148Z,93.50
2019-05-28T13:02:05.402Z,92.50
2019-05-28T13:04:34.586Z,91.50
2019-05-28T13:07:03.796Z,92.40
2019-05-28T13:09:33.381Z,93.40
2019-05-28T13:12:02.579Z,92.40
2019-05-28T13:14:31.868Z,91.50
2019-05-28T13:17:00.974Z,94.90
2019-05-28T13:19:30.180Z,93.80
2019-05-28T13:21:59.388Z,92.60
2019-05-28T13:24:28.540Z,91.90
2019-05-28T13:26:57.738Z,93.10
2019-05-28T13:29:27.167Z,90.50
2019-05-28T13:31:56.568Z,89.70
2019-05-28T13:34:25.731Z,90.20
2019-05-28T13:36:55.010Z,92.90
2019-05-28T13:39:24.352Z,86.70
2019-05-28T13:41:53.532Z,89.70
2019-05-28T13:44:22.724Z,90.30
2019-05-28T13:46:52.118Z,90.60
2019-05-28T13:49:21.348Z,85.90
2019-05-28T13:51:52.823Z,90.10
2019-05-28T13:54:21.713Z,89.20
2019-05-28T13:56:50.828Z,86.00
2019-05-28T13:59:20.060Z,88.80
2019-05-28T14:01:49.347Z,80.70
2019-05-28T14:04:18.471Z,86.60
2019-05-28T14:06:47.666Z,89.30
2019-05-28T14:09:16.822Z,80.40
2019-05-28T14:11:46.223Z,91.80
2019-05-28T14:14:15.363Z,89.10
2019-05-28T14:16:44.561Z,84.80
2019-05-28T14:19:13.837Z,89.90
2019-05-28T14:21:43.034Z,90.60
2019-05-28T14:24:12.237Z,88.40
2019-05-28T14:26:41.375Z,89.70
2019-05-28T14:29:10.559Z,85.30
2019-05-28T14:31:40.350Z,85.70
2019-05-28T14:34:09.601Z,86.50
2019-05-28T14:36:41.182Z,79.30
2019-05-28T14:39:10.284Z,86.50
2019-05-28T14:41:39.408Z,80.90
2019-05-28T14:44:08.645Z,86.10
2019-05-28T14:46:37.688Z,84.50
2019-05-28T14:49:09.821Z,80.40
2019-05-28T14:51:38.937Z,84.00
2019-05-28T14:54:08.126Z,83.50
2019-05-28T14:56:37.429Z,83.50
2019-05-28T14:59:06.564Z,84.50
2019-05-28T15:01:35.684Z,84.10
2019-05-28T15:04:04.835Z,83.80
2019-05-28T15:06:34.060Z,84.50
2019-05-28T15:09:19.539Z,76.90
2019-05-28T15:11:34.151Z,78.90
2019-05-28T15:14:03.257Z,81.80
2019-05-28T15:16:32.436Z,86.10
2019-05-28T15:19:01.663Z,77.00
2019-05-28T15:21:31.183Z,80.40
2019-05-28T15:24:00.511Z,76.00
2019-05-28T15:27:04.371Z,78.50
2019-05-28T15:29:33.950Z,78.00
2019-05-28T15:32:03.193Z,80.70
2019-05-28T15:34:35.221Z,82.60
2019-05-28T15:37:04.479Z,78.70
2019-05-28T15:39:39.522Z,79.50
2019-05-28T15:42:04.844Z,82.40
2019-05-28T15:44:34.264Z,82.90
2019-05-28T15:47:03.425Z,85.20
2019-05-28T15:49:33.078Z,82.70
2019-05-28T15:52:07.883Z,83.60
2019-05-28T15:54:33.263Z,82.00
2019-05-28T15:57:02.531Z,81.20
2019-05-28T15:59:31.805Z,82.70
2019-05-28T16:02:01.157Z,85.30
2019-05-28T16:04:31.158Z,80.20
2019-05-28T16:07:19.381Z,83.90
2019-05-28T16:09:56.124Z,84.40
2019-05-28T16:12:19.340Z,82.40
2019-05-28T16:14:48.514Z,79.60
2019-05-28T16:17:17.761Z,81.50
2019-05-28T16:19:47.054Z,84.00
2019-05-28T16:22:16.454Z,81.90
2019-05-28T16:24:45.596Z,82.00
2019-05-28T16:27:14.856Z,83.10
2019-05-28T16:29:44.070Z,79.90
2019-05-28T16:32:13.240Z,82.50
2019-05-28T16:34:42.355Z,84.60
2019-05-28T16:37:11.497Z,81.50
2019-05-28T16:39:40.651Z,82.60
2019-05-28T16:42:09.854Z,82.70
2019-05-28T16:44:39.165Z,82.10
2019-05-28T16:47:17.293Z,86.40
2019-05-28T16:49:39.100Z,80.60
2019-05-28T16:52:09.301Z,83.30
2019-05-28T16:54:38.572Z,84.10
2019-05-28T16:57:07.688Z,83.20
2019-05-28T16:59:37.115Z,82.30
2019-05-28T17:02:06.255Z,83.60
2019-05-28T17:04:35.592Z,82.40
2019-05-28T17:07:04.951Z,82.70
2019-05-28T17:09:34.353Z,85.20
2019-05-28T17:12:03.959Z,81.20
2019-05-28T17:14:33.402Z,82.20
2019-05-28T17:17:03.220Z,81.30
2019-05-28T17:19:32.791Z,84.10
2019-05-28T17:22:01.833Z,81.80
2019-05-28T17:24:30.908Z,80.50
2019-05-28T17:27:00.059Z,81.80
2019-05-28T17:29:29.320Z,82.60
2019-05-28T17:31:58.476Z,81.30
2019-05-28T17:34:27.718Z,83.70
2019-05-28T17:36:56.975Z,84.50
2019-05-28T17:39:26.054Z,81.20
2019-05-28T17:41:56.334Z,82.50
2019-05-28T17:44:25.467Z,78.80
2019-05-28T17:46:54.666Z,80.80
2019-05-28T17:49:23.813Z,81.00
2019-05-28T17:51:53.014Z,79.90
2019-05-28T17:54:22.237Z,81.00
2019-05-28T17:56:51.318Z,80.60
2019-05-28T17:59:20.427Z,84.00
2019-05-28T18:01:49.620Z,82.60
2019-05-28T18:04:18.752Z,79.90
2019-05-28T18:06:47.837Z,80.30
2019-05-28T18:09:17.058Z,84.70
2019-05-28T18:11:46.201Z,83.50
2019-05-28T18:14:15.330Z,82.70
2019-05-28T18:16:44.850Z,82.70
2019-05-28T18:19:14.100Z,83.80
2019-05-28T18:21:43.287Z,82.20
2019-05-28T18:24:12.579Z,82.20
2019-05-28T18:26:41.603Z,82.90
2019-05-28T18:29:10.712Z,80.00
2019-05-28T18:31:39.926Z,81.90
2019-05-28T18:34:09.044Z,84.60
2019-05-28T18:36:38.267Z,82.50
2019-05-28T18:39:08.197Z,82.90
2019-05-28T18:41:37.534Z,81.80
2019-05-28T18:44:06.749Z,84.10
2019-05-28T18:46:36.014Z,82.50
2019-05-28T18:49:05.526Z,82.10
2019-05-28T18:51:38.564Z,84.20
2019-05-28T18:54:05.733Z,82.00
2019-05-28T18:56:34.854Z,82.90
2019-05-28T18:59:04.120Z,83.40
2019-05-28T19:01:33.520Z,83.90
2019-05-28T19:04:02.890Z,79.80
2019-05-28T19:06:32.202Z,80.60
2019-05-28T19:09:01.336Z,81.60
2019-05-28T19:11:37.930Z,81.90
2019-05-28T19:14:01.564Z,82.60
2019-05-28T19:16:30.895Z,85.00
2019-05-28T19:19:00.068Z,84.10
2019-05-28T19:21:29.295Z,82.90
2019-05-28T19:23:58.639Z,80.20
2019-05-28T19:26:27.827Z,83.10
2019-05-28T19:28:56.959Z,83.10
2019-05-28T19:31:26.136Z,85.40
2019-05-28T19:33:55.829Z,83.70
2019-05-28T19:36:25.308Z,84.50
2019-05-28T19:38:56.421Z,84.30
2019-05-28T19:41:25.774Z,84.80
2019-05-28T19:43:54.992Z,83.50
2019-05-28T19:46:24.213Z,82.90
2019-05-28T19:48:53.538Z,84.70
2019-05-28T19:51:23.183Z,85.60
2019-05-28T19:53:52.299Z,84.60
2019-05-28T19:56:21.692Z,85.10
2019-05-28T19:58:51.014Z,87.30
2019-05-28T20:01:20.122Z,86.50
2019-05-28T20:03:49.400Z,86.40
2019-05-28T20:06:18.742Z,85.80
2019-05-28T20:08:47.946Z,84.00
2019-05-28T20:11:17.157Z,85.70
2019-05-28T20:13:49.034Z,87.40
2019-05-28T20:16:18.167Z,86.60
2019-05-28T20:18:47.447Z,87.10
2019-05-28T20:21:16.626Z,86.80
2019-05-28T20:23:45.853Z,87.90
2019-05-28T20:26:15.497Z,87.90
2019-05-28T20:28:44.655Z,89.00
2019-05-28T20:31:13.955Z,87.80
2019-05-28T20:34:03.823Z,87.80
2019-05-28T20:36:33.173Z,88.70
2019-05-28T20:39:03.612Z,90.00
2019-05-28T20:41:32.910Z,89.80
2019-05-28T20:44:02.179Z,89.10
2019-05-28T20:46:31.567Z,89.50
2019-05-28T20:49:00.797Z,90.10
2019-05-28T20:51:29.867Z,89.50
2019-05-28T20:53:59.039Z,90.20
2019-05-28T20:56:28.135Z,90.50
2019-05-28T20:59:00.058Z,90.10
2019-05-28T21:01:28.270Z,90.50
2019-05-28T21:03:58.256Z,90.70
2019-05-28T21:06:27.749Z,90.40
2019-05-28T21:08:58.227Z,90.80
2019-05-28T21:11:28.564Z,90.60
2019-05-28T21:13:58.834Z,91.00
2019-05-28T21:16:28.113Z,90.60
2019-05-28T21:18:57.360Z,90.00
2019-05-28T21:21:26.627Z,90.60
2019-05-28T21:23:55.939Z,90.40
2019-05-28T21:26:25.099Z,91.20
2019-05-28T21:28:54.311Z,90.70
2019-05-28T21:31:23.429Z,90.90
2019-05-28T21:33:52.870Z,91.10
2019-05-28T21:36:22.568Z,91.30
2019-05-28T21:38:51.660Z,91.20
2019-05-28T21:41:20.791Z,91.00
2019-05-28T21:43:50.140Z,91.20
2019-05-28T21:46:19.229Z,90.90
2019-05-28T21:48:48.475Z,91.30
2019-05-28T21:51:17.811Z,91.50
2019-05-28T21:53:47.037Z,91.50
2019-05-28T21:56:16.206Z,91.20
2019-05-28T21:58:45.391Z,91.40
2019-05-28T22:01:17.977Z,91.60
2019-05-28T22:03:47.090Z,91.70
2019-05-28T22:06:16.314Z,91.70
2019-05-28T22:08:45.479Z,91.60
2019-05-28T22:11:14.748Z,91.50
2019-05-28T22:13:43.834Z,91.30
2019-05-28T22:16:12.959Z,91.70
2019-05-28T22:18:42.056Z,91.70
2019-05-28T22:21:11.133Z,92.10
2019-05-28T22:23:40.361Z,91.80
2019-05-28T22:26:09.487Z,92.00
2019-05-28T22:28:38.759Z,91.90
2019-05-28T22:31:08.186Z,91.70
2019-05-28T22:33:37.291Z,91.90
2019-05-28T22:36:07.543Z,91.90
2019-05-28T22:38:36.811Z,91.90
2019-05-28T22:41:05.902Z,92.00
2019-05-28T22:43:35.026Z,91.90
2019-05-28T22:46:05.202Z,92.10
2019-05-28T22:48:34.319Z,92.10
2019-05-28T22:51:03.652Z,92.10
2019-05-28T22:53:32.844Z,92.00
2019-05-28T22:56:04.044Z,92.10
2019-05-28T22:58:33.074Z,92.00
2019-05-28T23:01:02.577Z,92.10
2019-05-28T23:03:31.764Z,91.50
2019-05-28T23:06:01.130Z,91.90
2019-05-28T23:08:30.256Z,92.20
2019-05-28T23:10:59.503Z,92.00
2019-05-28T23:13:28.590Z,92.10
2019-05-28T23:15:57.694Z,91.70
2019-05-28T23:18:26.892Z,92.30
2019-05-28T23:20:55.983Z,92.30
2019-05-28T23:23:25.144Z,92.30
2019-05-28T23:25:54.375Z,92.30
2019-05-28T23:28:23.775Z,92.20
2019-05-28T23:30:52.776Z,92.20
2019-05-28T23:33:21.984Z,92.40
2019-05-28T23:35:51.028Z,92.50
2019-05-28T23:38:20.162Z,92.50
2019-05-28T23:40:49.257Z,92.40
2019-05-28T23:43:18.601Z,92.50
2019-05-28T23:45:47.741Z,92.40
2019-05-28T23:48:18.497Z,92.40
2019-05-28T23:50:47.667Z,92.40
2019-05-28T23:53:17.922Z,92.50
2019-05-28T23:55:47.246Z,92.40
2019-05-28T23:58:16.338Z,92.60
